sensor_id;sensor_type;location;lat;lon;timestamp;pressure;altitude;pressure_sealevel;temperature;humidity
68141;BME280;54941;52.220;104.306;2024-01-11T00:01:12;96006.50;;;-23.70;68.96
68141;BME280;54941;52.220;104.306;2024-01-11T00:03:38;96010.63;;;-23.53;69.05
68141;BME280;54941;52.220;104.306;2024-01-11T00:06:05;96008.66;;;-23.81;68.54
68141;BME280;54941;52.220;104.306;2024-01-11T00:08:31;96007.09;;;-23.63;68.23
68141;BME280;54941;52.220;104.306;2024-01-11T00:10:57;95999.31;;;-23.67;69.17
68141;BME280;54941;52.220;104.306;2024-01-11T00:13:23;95998.56;;;-23.66;68.58
68141;BME280;54941;52.220;104.306;2024-01-11T00:15:50;95992.06;;;-23.81;67.75
68141;BME280;54941;52.220;104.306;2024-01-11T00:18:18;96009.06;;;-23.94;67.75
68141;BME280;54941;52.220;104.306;2024-01-11T00:20:44;96002.91;;;-23.89;67.12
68141;BME280;54941;52.220;104.306;2024-01-11T00:23:10;96001.09;;;-23.99;66.21
68141;BME280;54941;52.220;104.306;2024-01-11T00:25:36;95997.66;;;-24.16;67.14
68141;BME280;54941;52.220;104.306;2024-01-11T00:28:03;96005.06;;;-24.01;68.08
68141;BME280;54941;52.220;104.306;2024-01-11T00:30:29;96007.47;;;-24.18;67.71
68141;BME280;54941;52.220;104.306;2024-01-11T00:32:56;95994.19;;;-24.01;67.78
68141;BME280;54941;52.220;104.306;2024-01-11T00:35:24;95995.47;;;-23.72;67.39
68141;BME280;54941;52.220;104.306;2024-01-11T00:37:50;96000.44;;;-24.13;65.96
68141;BME280;54941;52.220;104.306;2024-01-11T00:40:16;96009.44;;;-24.40;67.36
68141;BME280;54941;52.220;104.306;2024-01-11T00:42:42;95999.22;;;-24.26;68.32
68141;BME280;54941;52.220;104.306;2024-01-11T00:45:09;96002.72;;;-23.99;68.38
68141;BME280;54941;52.220;104.306;2024-01-11T00:47:35;95993.94;;;-23.96;67.74
68141;BME280;54941;52.220;104.306;2024-01-11T00:50:01;96001.63;;;-24.18;66.34
68141;BME280;54941;52.220;104.306;2024-01-11T00:52:31;96005.38;;;-24.55;66.17
68141;BME280;54941;52.220;104.306;2024-01-11T00:54:58;96001.09;;;-24.40;66.59
68141;BME280;54941;52.220;104.306;2024-01-11T00:57:24;96006.53;;;-24.36;66.93
68141;BME280;54941;52.220;104.306;2024-01-11T00:59:50;95993.94;;;-24.29;66.69
68141;BME280;54941;52.220;104.306;2024-01-11T01:02:19;95991.72;;;-24.26;66.45
68141;BME280;54941;52.220;104.306;2024-01-11T01:04:45;96000.50;;;-24.38;66.73
68141;BME280;54941;52.220;104.306;2024-01-11T01:07:12;95997.28;;;-24.37;66.10
68141;BME280;54941;52.220;104.306;2024-01-11T01:09:40;95981.69;;;-24.43;66.73
68141;BME280;54941;52.220;104.306;2024-01-11T01:12:07;95970.97;;;-24.66;67.02
68141;BME280;54941;52.220;104.306;2024-01-11T01:14:33;95959.97;;;-24.68;68.04
68141;BME280;54941;52.220;104.306;2024-01-11T01:17:02;95951.97;;;-24.57;67.57
68141;BME280;54941;52.220;104.306;2024-01-11T01:19:28;95944.78;;;-24.54;68.45
68141;BME280;54941;52.220;104.306;2024-01-11T01:21:54;95932.91;;;-24.15;68.78
68141;BME280;54941;52.220;104.306;2024-01-11T01:24:20;95934.00;;;-23.96;69.91
68141;BME280;54941;52.220;104.306;2024-01-11T01:26:48;95933.38;;;-24.02;68.37
68141;BME280;54941;52.220;104.306;2024-01-11T01:29:14;95926.63;;;-24.03;69.05
68141;BME280;54941;52.220;104.306;2024-01-11T01:31:41;95923.75;;;-23.03;73.49
68141;BME280;54941;52.220;104.306;2024-01-11T01:34:07;95937.88;;;-23.47;69.71
68141;BME280;54941;52.220;104.306;2024-01-11T01:36:34;95940.66;;;-23.61;68.25
68141;BME280;54941;52.220;104.306;2024-01-11T01:39:00;95932.16;;;-23.63;68.69
68141;BME280;54941;52.220;104.306;2024-01-11T01:41:26;95927.28;;;-23.53;69.55
68141;BME280;54941;52.220;104.306;2024-01-11T01:43:54;95928.63;;;-23.31;69.40
68141;BME280;54941;52.220;104.306;2024-01-11T01:46:23;95908.34;;;-23.17;68.45
68141;BME280;54941;52.220;104.306;2024-01-11T01:48:50;95891.88;;;-23.23;67.72
68141;BME280;54941;52.220;104.306;2024-01-11T01:51:16;95896.28;;;-23.21;67.57
68141;BME280;54941;52.220;104.306;2024-01-11T01:53:43;95891.88;;;-23.15;70.56
68141;BME280;54941;52.220;104.306;2024-01-11T01:56:10;95876.28;;;-22.23;73.41
68141;BME280;54941;52.220;104.306;2024-01-11T01:58:37;95857.78;;;-21.60;74.40
68141;BME280;54941;52.220;104.306;2024-01-11T02:01:05;95840.31;;;-21.02;74.87
68141;BME280;54941;52.220;104.306;2024-01-11T02:03:32;95843.91;;;-20.40;76.14
68141;BME280;54941;52.220;104.306;2024-01-11T02:06:00;95835.44;;;-19.91;76.58
68141;BME280;54941;52.220;104.306;2024-01-11T02:08:27;95821.41;;;-19.79;75.84
68141;BME280;54941;52.220;104.306;2024-01-11T02:10:54;95820.84;;;-20.05;73.00
68141;BME280;54941;52.220;104.306;2024-01-11T02:13:22;95821.59;;;-20.17;73.02
68141;BME280;54941;52.220;104.306;2024-01-11T02:15:48;95815.31;;;-20.22;71.87
68141;BME280;54941;52.220;104.306;2024-01-11T02:18:16;95804.75;;;-20.28;73.21
68141;BME280;54941;52.220;104.306;2024-01-11T02:20:42;95806.56;;;-19.86;74.20
68141;BME280;54941;52.220;104.306;2024-01-11T02:23:14;95799.63;;;-19.68;74.48
68141;BME280;54941;52.220;104.306;2024-01-11T02:25:42;95814.09;;;-19.76;73.54
68141;BME280;54941;52.220;104.306;2024-01-11T02:28:09;95813.84;;;-19.59;72.74
68141;BME280;54941;52.220;104.306;2024-01-11T02:30:35;95806.41;;;-19.57;72.45
68141;BME280;54941;52.220;104.306;2024-01-11T02:33:01;95795.47;;;-19.58;72.96
68141;BME280;54941;52.220;104.306;2024-01-11T02:35:28;95789.13;;;-19.32;73.64
68141;BME280;54941;52.220;104.306;2024-01-11T02:37:55;95781.00;;;-18.98;73.20
68141;BME280;54941;52.220;104.306;2024-01-11T02:40:22;95759.84;;;-18.56;71.68
68141;BME280;54941;52.220;104.306;2024-01-11T02:42:50;95756.69;;;-17.76;68.84
68141;BME280;54941;52.220;104.306;2024-01-11T02:45:16;95750.13;;;-17.16;66.25
68141;BME280;54941;52.220;104.306;2024-01-11T02:47:42;95745.25;;;-16.29;64.15
68141;BME280;54941;52.220;104.306;2024-01-11T02:50:09;95725.50;;;-15.34;61.62
68141;BME280;54941;52.220;104.306;2024-01-11T02:52:35;95718.75;;;-15.59;61.61
68141;BME280;54941;52.220;104.306;2024-01-11T02:55:02;95701.13;;;-15.71;61.32
68141;BME280;54941;52.220;104.306;2024-01-11T02:57:28;95698.13;;;-15.13;60.95
68141;BME280;54941;52.220;104.306;2024-01-11T02:59:56;95686.72;;;-14.80;59.83
68141;BME280;54941;52.220;104.306;2024-01-11T03:02:22;95684.19;;;-15.46;60.73
68141;BME280;54941;52.220;104.306;2024-01-11T03:04:48;95670.09;;;-14.33;59.93
68141;BME280;54941;52.220;104.306;2024-01-11T03:07:15;95656.75;;;-13.59;58.20
68141;BME280;54941;52.220;104.306;2024-01-11T03:09:41;95639.13;;;-13.26;56.94
68141;BME280;54941;52.220;104.306;2024-01-11T03:12:07;95647.03;;;-13.36;57.08
68141;BME280;54941;52.220;104.306;2024-01-11T03:14:34;95645.97;;;-13.09;55.97
68141;BME280;54941;52.220;104.306;2024-01-11T03:17:01;95650.97;;;-13.41;54.88
68141;BME280;54941;52.220;104.306;2024-01-11T03:19:28;95651.38;;;-12.88;54.94
68141;BME280;54941;52.220;104.306;2024-01-11T03:21:54;95654.31;;;-13.42;56.54
68141;BME280;54941;52.220;104.306;2024-01-11T03:24:20;95641.34;;;-13.01;56.15
68141;BME280;54941;52.220;104.306;2024-01-11T03:26:47;95643.63;;;-12.11;54.79
68141;BME280;54941;52.220;104.306;2024-01-11T03:29:14;95637.59;;;-11.81;53.28
68141;BME280;54941;52.220;104.306;2024-01-11T03:31:40;95632.00;;;-11.22;52.86
68141;BME280;54941;52.220;104.306;2024-01-11T03:34:08;95638.00;;;-11.37;52.95
68141;BME280;54941;52.220;104.306;2024-01-11T03:36:34;95613.56;;;-10.98;52.86
68141;BME280;54941;52.220;104.306;2024-01-11T03:39:01;95611.94;;;-11.14;53.33
68141;BME280;54941;52.220;104.306;2024-01-11T03:41:27;95614.22;;;-11.20;54.00
68141;BME280;54941;52.220;104.306;2024-01-11T03:43:54;95609.81;;;-10.51;52.46
68141;BME280;54941;52.220;104.306;2024-01-11T03:46:20;95600.06;;;-11.13;53.65
68141;BME280;54941;52.220;104.306;2024-01-11T03:48:46;95602.09;;;-10.71;53.11
68141;BME280;54941;52.220;104.306;2024-01-11T03:51:14;95594.34;;;-11.09;53.41
68141;BME280;54941;52.220;104.306;2024-01-11T03:53:40;95587.09;;;-11.36;55.09
68141;BME280;54941;52.220;104.306;2024-01-11T03:56:06;95579.56;;;-10.62;54.66
68141;BME280;54941;52.220;104.306;2024-01-11T03:58:33;95562.69;;;-10.95;55.41
68141;BME280;54941;52.220;104.306;2024-01-11T04:01:00;95543.78;;;-10.81;54.69
68141;BME280;54941;52.220;104.306;2024-01-11T04:03:26;95540.78;;;-11.27;57.21
68141;BME280;54941;52.220;104.306;2024-01-11T04:05:52;95534.81;;;-11.28;57.68
68141;BME280;54941;52.220;104.306;2024-01-11T04:08:20;95535.81;;;-11.95;59.90
68141;BME280;54941;52.220;104.306;2024-01-11T04:10:46;95528.72;;;-12.35;61.14
68141;BME280;54941;52.220;104.306;2024-01-11T04:13:12;95524.97;;;-12.25;62.17
68141;BME280;54941;52.220;104.306;2024-01-11T04:15:39;95537.19;;;-12.18;61.66
68141;BME280;54941;52.220;104.306;2024-01-11T04:18:05;95530.06;;;-12.42;62.50
68141;BME280;54941;52.220;104.306;2024-01-11T04:20:31;95530.88;;;-12.43;62.66
68141;BME280;54941;52.220;104.306;2024-01-11T04:22:57;95521.34;;;-12.47;62.50
68141;BME280;54941;52.220;104.306;2024-01-11T04:25:25;95520.09;;;-12.21;62.57
68141;BME280;54941;52.220;104.306;2024-01-11T04:27:51;95515.53;;;-12.60;63.19
68141;BME280;54941;52.220;104.306;2024-01-11T04:30:18;95507.50;;;-12.52;63.57
68141;BME280;54941;52.220;104.306;2024-01-11T04:32:44;95499.81;;;-12.19;63.13
68141;BME280;54941;52.220;104.306;2024-01-11T04:35:10;95496.38;;;-12.38;62.65
68141;BME280;54941;52.220;104.306;2024-01-11T04:37:37;95487.03;;;-12.21;62.41
68141;BME280;54941;52.220;104.306;2024-01-11T04:40:04;95483.47;;;-12.24;62.15
68141;BME280;54941;52.220;104.306;2024-01-11T04:42:32;95475.31;;;-12.17;62.34
68141;BME280;54941;52.220;104.306;2024-01-11T04:44:58;95487.44;;;-12.29;62.20
68141;BME280;54941;52.220;104.306;2024-01-11T04:47:24;95472.81;;;-11.82;61.81
68141;BME280;54941;52.220;104.306;2024-01-11T04:49:54;95484.66;;;-12.00;61.63
68141;BME280;54941;52.220;104.306;2024-01-11T04:52:28;95471.59;;;-11.90;61.86
68141;BME280;54941;52.220;104.306;2024-01-11T04:55:02;95471.00;;;-11.84;61.45
68141;BME280;54941;52.220;104.306;2024-01-11T04:57:33;95468.72;;;-11.78;61.72
68141;BME280;54941;52.220;104.306;2024-01-11T05:00:06;95470.59;;;-11.01;59.53
68141;BME280;54941;52.220;104.306;2024-01-11T05:02:32;95465.75;;;-11.14;58.93
68141;BME280;54941;52.220;104.306;2024-01-11T05:04:59;95477.44;;;-11.20;59.52
68141;BME280;54941;52.220;104.306;2024-01-11T05:07:27;95469.66;;;-11.23;59.52
68141;BME280;54941;52.220;104.306;2024-01-11T05:10:03;95462.94;;;-11.01;59.04
68141;BME280;54941;52.220;104.306;2024-01-11T05:12:30;95454.28;;;-11.42;59.95
68141;BME280;54941;52.220;104.306;2024-01-11T05:15:01;95449.63;;;-11.33;60.19
68141;BME280;54941;52.220;104.306;2024-01-11T05:17:30;95434.72;;;-11.24;59.86
68141;BME280;54941;52.220;104.306;2024-01-11T05:20:01;95402.69;;;-11.19;59.23
68141;BME280;54941;52.220;104.306;2024-01-11T05:22:30;95410.34;;;-10.99;58.46
68141;BME280;54941;52.220;104.306;2024-01-11T05:25:00;95434.09;;;-11.00;58.59
68141;BME280;54941;52.220;104.306;2024-01-11T05:27:30;95414.38;;;-10.85;58.23
68141;BME280;54941;52.220;104.306;2024-01-11T05:29:56;95417.25;;;-10.97;57.94
68141;BME280;54941;52.220;104.306;2024-01-11T05:32:24;95405.25;;;-10.99;57.33
68141;BME280;54941;52.220;104.306;2024-01-11T05:34:53;95399.59;;;-11.11;57.47
68141;BME280;54941;52.220;104.306;2024-01-11T05:37:20;95401.47;;;-11.07;56.63
68141;BME280;54941;52.220;104.306;2024-01-11T05:39:46;95393.22;;;-11.21;56.75
68141;BME280;54941;52.220;104.306;2024-01-11T05:42:15;95393.16;;;-11.03;56.12
68141;BME280;54941;52.220;104.306;2024-01-11T05:44:42;95389.97;;;-10.99;56.35
68141;BME280;54941;52.220;104.306;2024-01-11T05:47:08;95399.53;;;-10.94;56.29
68141;BME280;54941;52.220;104.306;2024-01-11T05:49:36;95407.59;;;-11.04;56.10
68141;BME280;54941;52.220;104.306;2024-01-11T05:52:02;95400.94;;;-10.81;55.18
68141;BME280;54941;52.220;104.306;2024-01-11T05:54:32;95397.50;;;-10.62;54.72
68141;BME280;54941;52.220;104.306;2024-01-11T05:56:58;95381.47;;;-10.39;54.32
68141;BME280;54941;52.220;104.306;2024-01-11T05:59:24;95386.09;;;-10.30;53.80
68141;BME280;54941;52.220;104.306;2024-01-11T06:01:50;95383.94;;;-10.19;53.54
68141;BME280;54941;52.220;104.306;2024-01-11T06:04:17;95369.47;;;-10.19;53.35
68141;BME280;54941;52.220;104.306;2024-01-11T06:06:47;95357.06;;;-9.89;53.07
68141;BME280;54941;52.220;104.306;2024-01-11T06:09:13;95350.28;;;-9.88;52.46
68141;BME280;54941;52.220;104.306;2024-01-11T06:11:39;95338.75;;;-10.00;53.12
68141;BME280;54941;52.220;104.306;2024-01-11T06:14:06;95345.38;;;-9.84;52.89
68141;BME280;54941;52.220;104.306;2024-01-11T06:16:32;95351.94;;;-9.68;52.21
68141;BME280;54941;52.220;104.306;2024-01-11T06:18:58;95350.91;;;-9.94;52.38
68141;BME280;54941;52.220;104.306;2024-01-11T06:21:25;95358.19;;;-9.82;52.14
68141;BME280;54941;52.220;104.306;2024-01-11T06:23:53;95370.97;;;-9.82;52.26
68141;BME280;54941;52.220;104.306;2024-01-11T06:26:19;95373.63;;;-9.79;52.48
68141;BME280;54941;52.220;104.306;2024-01-11T06:28:45;95362.66;;;-9.77;52.08
68141;BME280;54941;52.220;104.306;2024-01-11T06:31:12;95372.03;;;-9.98;52.67
68141;BME280;54941;52.220;104.306;2024-01-11T06:33:38;95355.16;;;-9.94;52.85
68141;BME280;54941;52.220;104.306;2024-01-11T06:36:06;95365.84;;;-9.82;52.62
68141;BME280;54941;52.220;104.306;2024-01-11T06:38:32;95364.69;;;-9.90;52.69
68141;BME280;54941;52.220;104.306;2024-01-11T06:41:04;95357.78;;;-9.93;53.21
68141;BME280;54941;52.220;104.306;2024-01-11T06:43:30;95368.81;;;-10.15;53.33
68141;BME280;54941;52.220;104.306;2024-01-11T06:46:02;95376.59;;;-10.12;53.66
68141;BME280;54941;52.220;104.306;2024-01-11T06:48:28;95393.25;;;-10.21;54.02
68141;BME280;54941;52.220;104.306;2024-01-11T06:50:55;95384.41;;;-10.29;54.44
68141;BME280;54941;52.220;104.306;2024-01-11T06:53:21;95386.34;;;-10.24;54.15
68141;BME280;54941;52.220;104.306;2024-01-11T06:55:47;95388.56;;;-10.32;54.83
68141;BME280;54941;52.220;104.306;2024-01-11T06:58:15;95389.38;;;-10.33;54.78
68141;BME280;54941;52.220;104.306;2024-01-11T07:00:42;95393.41;;;-10.17;55.07
68141;BME280;54941;52.220;104.306;2024-01-11T07:03:08;95414.84;;;-10.13;54.63
68141;BME280;54941;52.220;104.306;2024-01-11T07:05:34;95418.22;;;-9.93;53.95
68141;BME280;54941;52.220;104.306;2024-01-11T07:08:00;95418.72;;;-10.23;54.58
68141;BME280;54941;52.220;104.306;2024-01-11T07:10:27;95418.47;;;-10.29;54.82
68141;BME280;54941;52.220;104.306;2024-01-11T07:12:53;95432.47;;;-10.40;55.32
68141;BME280;54941;52.220;104.306;2024-01-11T07:15:21;95431.47;;;-10.23;55.29
68141;BME280;54941;52.220;104.306;2024-01-11T07:17:47;95434.22;;;-10.39;54.96
68141;BME280;54941;52.220;104.306;2024-01-11T07:20:13;95445.47;;;-10.34;55.26
68141;BME280;54941;52.220;104.306;2024-01-11T07:22:40;95437.00;;;-10.33;55.81
68141;BME280;54941;52.220;104.306;2024-01-11T07:25:07;95445.91;;;-10.44;55.50
68141;BME280;54941;52.220;104.306;2024-01-11T07:27:33;95427.66;;;-10.12;55.65
68141;BME280;54941;52.220;104.306;2024-01-11T07:29:59;95437.53;;;-10.42;55.25
68141;BME280;54941;52.220;104.306;2024-01-11T07:32:27;95442.69;;;-10.40;55.94
68141;BME280;54941;52.220;104.306;2024-01-11T07:34:53;95467.66;;;-10.33;55.51
68141;BME280;54941;52.220;104.306;2024-01-11T07:37:20;95491.97;;;-10.22;56.32
68141;BME280;54941;52.220;104.306;2024-01-11T07:39:46;95486.06;;;-10.19;55.99
68141;BME280;54941;52.220;104.306;2024-01-11T07:42:13;95500.03;;;-10.32;56.40
68141;BME280;54941;52.220;104.306;2024-01-11T07:44:40;95516.56;;;-10.43;56.77
68141;BME280;54941;52.220;104.306;2024-01-11T07:47:06;95510.94;;;-10.36;56.51
68141;BME280;54941;52.220;104.306;2024-01-11T07:49:34;95502.72;;;-10.48;56.83
68141;BME280;54941;52.220;104.306;2024-01-11T07:52:00;95504.00;;;-10.58;57.36
68141;BME280;54941;52.220;104.306;2024-01-11T07:54:26;95543.25;;;-10.37;57.31
68141;BME280;54941;52.220;104.306;2024-01-11T07:56:52;95559.72;;;-10.30;56.50
68141;BME280;54941;52.220;104.306;2024-01-11T07:59:19;95561.38;;;-10.31;57.30
68141;BME280;54941;52.220;104.306;2024-01-11T08:01:45;95590.94;;;-10.36;57.24
68141;BME280;54941;52.220;104.306;2024-01-11T08:04:12;95610.69;;;-10.69;57.40
68141;BME280;54941;52.220;104.306;2024-01-11T08:06:39;95623.09;;;-10.58;57.91
68141;BME280;54941;52.220;104.306;2024-01-11T08:09:06;95617.53;;;-10.68;57.65
68141;BME280;54941;52.220;104.306;2024-01-11T08:11:32;95627.63;;;-10.71;58.27
68141;BME280;54941;52.220;104.306;2024-01-11T08:13:58;95643.81;;;-10.88;58.88
68141;BME280;54941;52.220;104.306;2024-01-11T08:16:24;95655.31;;;-10.96;59.15
68141;BME280;54941;52.220;104.306;2024-01-11T08:18:50;95659.56;;;-10.97;59.51
68141;BME280;54941;52.220;104.306;2024-01-11T08:21:17;95658.66;;;-11.15;60.25
68141;BME280;54941;52.220;104.306;2024-01-11T08:23:45;95671.53;;;-11.30;61.04
68141;BME280;54941;52.220;104.306;2024-01-11T08:26:12;95672.13;;;-11.18;61.35
68141;BME280;54941;52.220;104.306;2024-01-11T08:28:38;95672.88;;;-11.20;61.31
68141;BME280;54941;52.220;104.306;2024-01-11T08:31:04;95666.63;;;-11.43;61.75
68141;BME280;54941;52.220;104.306;2024-01-11T08:33:31;95666.00;;;-11.55;62.56
68141;BME280;54941;52.220;104.306;2024-01-11T08:35:57;95670.78;;;-11.61;62.74
68141;BME280;54941;52.220;104.306;2024-01-11T08:38:24;95667.44;;;-11.60;63.06
68141;BME280;54941;52.220;104.306;2024-01-11T08:40:51;95672.53;;;-11.60;62.75
68141;BME280;54941;52.220;104.306;2024-01-11T08:43:18;95689.34;;;-11.64;63.41
68141;BME280;54941;52.220;104.306;2024-01-11T08:45:44;95709.34;;;-11.55;63.58
68141;BME280;54941;52.220;104.306;2024-01-11T08:48:16;95704.84;;;-11.59;63.00
68141;BME280;54941;52.220;104.306;2024-01-11T08:50:42;95717.84;;;-11.55;63.42
68141;BME280;54941;52.220;104.306;2024-01-11T08:53:09;95740.84;;;-11.53;63.88
68141;BME280;54941;52.220;104.306;2024-01-11T08:55:38;95745.81;;;-11.56;63.73
68141;BME280;54941;52.220;104.306;2024-01-11T08:58:06;95769.19;;;-11.47;63.98
68141;BME280;54941;52.220;104.306;2024-01-11T09:00:32;95778.59;;;-11.46;63.73
68141;BME280;54941;52.220;104.306;2024-01-11T09:02:58;95788.84;;;-11.61;63.84
68141;BME280;54941;52.220;104.306;2024-01-11T09:05:32;95783.22;;;-11.55;64.27
68141;BME280;54941;52.220;104.306;2024-01-11T09:07:58;95781.44;;;-11.72;64.41
68141;BME280;54941;52.220;104.306;2024-01-11T09:10:25;95762.03;;;-11.70;64.77
68141;BME280;54941;52.220;104.306;2024-01-11T09:12:51;95766.81;;;-11.77;65.32
68141;BME280;54941;52.220;104.306;2024-01-11T09:15:22;95770.53;;;-11.70;65.22
68141;BME280;54941;52.220;104.306;2024-01-11T09:17:51;95773.50;;;-11.79;65.57
68141;BME280;54941;52.220;104.306;2024-01-11T09:20:21;95776.28;;;-11.74;65.93
68141;BME280;54941;52.220;104.306;2024-01-11T09:22:49;95782.50;;;-11.85;66.06
68141;BME280;54941;52.220;104.306;2024-01-11T09:25:16;95805.69;;;-11.81;66.36
68141;BME280;54941;52.220;104.306;2024-01-11T09:27:42;95818.44;;;-11.81;66.57
68141;BME280;54941;52.220;104.306;2024-01-11T09:30:09;95835.03;;;-11.87;67.11
68141;BME280;54941;52.220;104.306;2024-01-11T09:32:37;95835.56;;;-11.93;67.49
68141;BME280;54941;52.220;104.306;2024-01-11T09:35:04;95841.00;;;-11.87;67.86
68141;BME280;54941;52.220;104.306;2024-01-11T09:37:32;95854.38;;;-11.91;68.07
68141;BME280;54941;52.220;104.306;2024-01-11T09:40:00;95864.88;;;-11.85;68.35
68141;BME280;54941;52.220;104.306;2024-01-11T09:42:29;95870.28;;;-11.79;68.43
68141;BME280;54941;52.220;104.306;2024-01-11T09:44:59;95873.25;;;-11.87;68.44
68141;BME280;54941;52.220;104.306;2024-01-11T09:47:28;95875.19;;;-11.98;68.71
68141;BME280;54941;52.220;104.306;2024-01-11T09:50:01;95898.19;;;-11.96;69.03
68141;BME280;54941;52.220;104.306;2024-01-11T09:52:32;95904.13;;;-11.81;68.81
68141;BME280;54941;52.220;104.306;2024-01-11T09:54:58;95914.78;;;-11.88;68.53
68141;BME280;54941;52.220;104.306;2024-01-11T09:57:31;95917.84;;;-11.94;69.07
68141;BME280;54941;52.220;104.306;2024-01-11T09:59:58;95920.75;;;-11.88;69.00
68141;BME280;54941;52.220;104.306;2024-01-11T10:02:25;95913.03;;;-11.89;68.62
68141;BME280;54941;52.220;104.306;2024-01-11T10:04:52;95910.56;;;-11.88;68.17
68141;BME280;54941;52.220;104.306;2024-01-11T10:07:21;95910.66;;;-11.86;68.37
68141;BME280;54941;52.220;104.306;2024-01-11T10:09:48;95922.25;;;-11.91;68.22
68141;BME280;54941;52.220;104.306;2024-01-11T10:12:14;95946.56;;;-11.96;68.21
68141;BME280;54941;52.220;104.306;2024-01-11T10:14:40;95949.47;;;-11.90;68.59
68141;BME280;54941;52.220;104.306;2024-01-11T10:17:07;95943.50;;;-11.91;68.40
68141;BME280;54941;52.220;104.306;2024-01-11T10:19:33;95940.09;;;-11.91;68.29
68141;BME280;54941;52.220;104.306;2024-01-11T10:22:00;95934.88;;;-11.93;68.04
68141;BME280;54941;52.220;104.306;2024-01-11T10:24:27;95966.78;;;-11.99;68.61
68141;BME280;54941;52.220;104.306;2024-01-11T10:26:55;95967.50;;;-12.02;68.18
68141;BME280;54941;52.220;104.306;2024-01-11T10:29:22;95971.25;;;-11.95;68.34
68141;BME280;54941;52.220;104.306;2024-01-11T10:31:48;95963.59;;;-11.95;68.39
68141;BME280;54941;52.220;104.306;2024-01-11T10:34:16;95960.03;;;-11.99;68.59
68141;BME280;54941;52.220;104.306;2024-01-11T10:36:43;95959.94;;;-12.00;68.78
68141;BME280;54941;52.220;104.306;2024-01-11T10:39:10;95949.19;;;-11.95;68.74
68141;BME280;54941;52.220;104.306;2024-01-11T10:41:39;95961.13;;;-11.94;68.61
68141;BME280;54941;52.220;104.306;2024-01-11T10:44:08;95965.53;;;-12.06;69.04
68141;BME280;54941;52.220;104.306;2024-01-11T10:46:39;95974.50;;;-11.98;68.83
68141;BME280;54941;52.220;104.306;2024-01-11T10:49:06;95978.63;;;-12.00;69.07
68141;BME280;54941;52.220;104.306;2024-01-11T10:51:34;95969.66;;;-11.93;69.13
68141;BME280;54941;52.220;104.306;2024-01-11T10:54:00;95978.88;;;-11.95;69.00
68141;BME280;54941;52.220;104.306;2024-01-11T10:56:27;95981.59;;;-12.07;69.27
68141;BME280;54941;52.220;104.306;2024-01-11T10:58:56;95983.66;;;-12.01;69.46
68141;BME280;54941;52.220;104.306;2024-01-11T11:01:24;95983.81;;;-12.13;69.65
68141;BME280;54941;52.220;104.306;2024-01-11T11:03:52;95995.13;;;-12.08;69.69
68141;BME280;54941;52.220;104.306;2024-01-11T11:06:22;95993.81;;;-12.16;69.76
68141;BME280;54941;52.220;104.306;2024-01-11T11:08:50;95997.94;;;-12.18;69.97
68141;BME280;54941;52.220;104.306;2024-01-11T11:11:17;95998.03;;;-12.17;70.08
68141;BME280;54941;52.220;104.306;2024-01-11T11:13:47;95997.69;;;-12.23;70.24
68141;BME280;54941;52.220;104.306;2024-01-11T11:16:16;96015.97;;;-12.15;70.62
68141;BME280;54941;52.220;104.306;2024-01-11T11:18:42;96037.09;;;-12.16;70.31
68141;BME280;54941;52.220;104.306;2024-01-11T11:21:09;96038.75;;;-12.17;70.33
68141;BME280;54941;52.220;104.306;2024-01-11T11:23:36;96039.47;;;-12.04;70.18
68141;BME280;54941;52.220;104.306;2024-01-11T11:26:05;96044.50;;;-11.91;69.77
68141;BME280;54941;52.220;104.306;2024-01-11T11:28:32;96039.22;;;-11.94;69.75
68141;BME280;54941;52.220;104.306;2024-01-11T11:31:00;96050.03;;;-11.98;70.16
68141;BME280;54941;52.220;104.306;2024-01-11T11:33:29;96056.78;;;-11.99;70.31
68141;BME280;54941;52.220;104.306;2024-01-11T11:35:58;96061.78;;;-12.00;70.10
68141;BME280;54941;52.220;104.306;2024-01-11T11:38:26;96071.19;;;-11.85;70.06
68141;BME280;54941;52.220;104.306;2024-01-11T11:40:53;96076.75;;;-11.92;70.28
68141;BME280;54941;52.220;104.306;2024-01-11T11:43:24;96074.59;;;-11.99;70.54
68141;BME280;54941;52.220;104.306;2024-01-11T11:45:50;96072.41;;;-11.93;70.64
68141;BME280;54941;52.220;104.306;2024-01-11T11:48:50;96078.28;;;-11.94;70.43
68141;BME280;54941;52.220;104.306;2024-01-11T11:51:17;96070.22;;;-11.87;70.41
68141;BME280;54941;52.220;104.306;2024-01-11T11:53:45;96070.84;;;-11.91;70.43
68141;BME280;54941;52.220;104.306;2024-01-11T11:56:12;96074.06;;;-11.93;70.53
68141;BME280;54941;52.220;104.306;2024-01-11T11:58:39;96083.13;;;-11.84;70.50
68141;BME280;54941;52.220;104.306;2024-01-11T12:01:05;96080.84;;;-11.94;70.61
68141;BME280;54941;52.220;104.306;2024-01-11T12:03:33;96083.75;;;-11.88;71.09
68141;BME280;54941;52.220;104.306;2024-01-11T12:06:01;96098.00;;;-11.91;71.00
68141;BME280;54941;52.220;104.306;2024-01-11T12:08:28;96102.81;;;-11.81;70.77
68141;BME280;54941;52.220;104.306;2024-01-11T12:10:54;96106.22;;;-11.66;70.08
68141;BME280;54941;52.220;104.306;2024-01-11T12:13:21;96106.94;;;-11.83;70.81
68141;BME280;54941;52.220;104.306;2024-01-11T12:15:47;96105.19;;;-11.84;70.66
68141;BME280;54941;52.220;104.306;2024-01-11T12:18:13;96099.84;;;-11.89;71.10
68141;BME280;54941;52.220;104.306;2024-01-11T12:20:40;96090.06;;;-11.96;71.67
68141;BME280;54941;52.220;104.306;2024-01-11T12:23:08;96090.31;;;-11.77;70.77
68141;BME280;54941;52.220;104.306;2024-01-11T12:25:34;96107.44;;;-11.74;70.82
68141;BME280;54941;52.220;104.306;2024-01-11T12:28:01;96118.34;;;-11.77;70.73
68141;BME280;54941;52.220;104.306;2024-01-11T12:30:27;96119.09;;;-11.79;71.23